Bookmark and Share
Track history (hours):
 

Stella Polaris

Last reported at 2014-Apr-13 16:32 UTC. Time now 2014-Apr-18 16:08 UTC.
Position N 46°32' W 072°12'.

Length 120 m; draft 5.4 m.

Type: Tanker. MMSI: 245911000.

NotesDate/timePositionNaut miles runAvg speedWind from/ knotsBaromVisibWave heightAir tempDewpointWater temp
2014-Apr-13 16:32N 46°32' W 072°12'1414.1
2014-Apr-13 15:33N 46°23' W 072°28'1211.7
2014-Apr-13 14:33N 46°16' W 072°41'3712.4
2014-Apr-13 11:33N 45°49' W 073°19'1313.4
2014-Apr-13 10:33N 45°38' W 073°29'8 7.9
2014-Apr-13 09:33N 45°30' W 073°31'1 1.4
2014-Apr-13 08:33N 45°29' W 073°31'3 3.1
2014-Apr-13 07:33N 45°26' W 073°30'3 3.3
2014-Apr-13 06:33N 45°24' W 073°35'7 7.1
2014-Apr-13 05:33N 45°24' W 073°45'9 9.1
2014-Apr-13 04:33N 45°19' W 073°55'3 2.9
2014-Apr-13 03:33N 45°16' W 073°57'1110.8
2014-Apr-13 02:33N 45°14' W 074°12'109 8.9
2014-Apr-12 14:19N 44°12' W 076°17'810.3
2014-Apr-12 13:32N 44°06' W 076°24'8 7.8
2014-Apr-12 12:31N 43°59' W 076°30'  
2014-Apr-08 14:08N 44°08' W 076°20'100 4.0
2014-Apr-07 13:08N 45°07' W 074°27'5 9.2
2014-Apr-07 12:33N 45°10' W 074°21'8 8.5
2014-Apr-07 11:33N 45°14' W 074°10'8 8.2
2014-Apr-07 10:33N 45°15' W 073°59'2 2.0
2014-Apr-07 09:33N 45°16' W 073°57'0 0.4
2014-Apr-07 08:33N 45°17' W 073°57'2 1.6
2014-Apr-07 07:33N 45°18' W 073°56'1 1.0
2014-Apr-07 06:23N 45°19' W 073°55'0 0.0
2014-Apr-07 05:32N 45°19' W 073°55'0 0.0
2014-Apr-07 04:31N 45°19' W 073°55'0 0.0
2014-Apr-07 03:28N 45°19' W 073°55'0 0.0
2014-Apr-07 02:33N 45°19' W 073°55'0 0.0
2014-Apr-07 01:33N 45°19' W 073°55'0 0.0
2014-Apr-07 00:32N 45°19' W 073°55'0 0.0
2014-Apr-06 23:32N 45°19' W 073°55'0 0.0
2014-Apr-06 22:32N 45°19' W 073°55'0 0.0
2014-Apr-06 21:31N 45°19' W 073°55'0 0.0
2014-Apr-06 20:31N 45°19' W 073°55'0 0.0
2014-Apr-06 19:33N 45°19' W 073°55'0 0.0
2014-Apr-06 18:33N 45°19' W 073°55'0 0.0
2014-Apr-06 17:32N 45°19' W 073°55'0 0.0
2014-Apr-06 16:29N 45°19' W 073°55'0 0.0
2014-Apr-06 15:31N 45°19' W 073°55'0 0.0
2014-Apr-06 14:28N 45°19' W 073°55'0 0.0
2014-Apr-06 13:31N 45°19' W 073°55'0 0.0
2014-Apr-06 12:33N 45°19' W 073°55'3 2.7
2014-Apr-06 11:34N 45°21' W 073°52'7 6.9
2014-Apr-06 10:34N 45°24' W 073°43'6 5.8
2014-Apr-06 09:33N 45°24' W 073°35'1 1.1
2014-Apr-06 08:34N 45°24' W 073°34'0 0.1
2014-Apr-06 07:31N 45°24' W 073°33'0 0.0
2014-Apr-06 06:31N 45°24' W 073°33'1 1.5
2014-Apr-06 05:33N 45°25' W 073°31'5 4.8
2014-Apr-06 04:30N 45°30' W 073°31'2 2.2
2014-Apr-06 03:33N 45°32' W 073°32'7 6.6
2014-Apr-06 02:33N 45°38' W 073°29'41 4.4
2014-Apr-05 17:08N 46°11' W 072°54'711.8
2014-Apr-05 16:33N 46°15' W 072°45'1010.3
2014-Apr-05 15:33N 46°20' W 072°32'7 7.0
2014-Apr-05 14:33N 46°24' W 072°24'9 9.4
2014-Apr-05 13:33N 46°30' W 072°14'  

Dump ship's entire track history

sailing weather and tide predictions

Stella Polaris — PEBD — position and weather